< < Back
Terminal Aerodrome Forecast


Current Version              Previous Versions:   1  2  3  4  5  6  7  8  9  

Terminal Aerodrome Forecast

504
FTUS42 KJAX 292000 AAA
TAFJAX
TAF AMD
KJAX 292028Z 2920/3018 09011KT P6SM FEW040 BKN100 BKN250
     FM300200 16003KT P6SM FEW100 SCT250
     FM301500 11008KT P6SM SCT035=

Latest METAR

944
SAUS80 KWBC 292200
MTRJAX
METAR KJAX 292156Z 09010KT 10SM FEW040 BKN100 BKN250 29/24 A3005 RMK AO2
SLP174 T02940239


USA.gov is the U.S. government's official web portal to all federal, state and local government web resources and services.